createdAt,value
2023-02-12T00:01:21.357Z,12.82
2023-02-12T00:03:47.104Z,10.73
2023-02-12T00:06:15.816Z,14.52
2023-02-12T00:08:41.885Z,14.63
2023-02-12T00:11:12.161Z,9.65
2023-02-12T00:13:38.381Z,19.33
2023-02-12T00:16:05.189Z,18.08
2023-02-12T00:18:30.925Z,19.42
2023-02-12T00:20:58.285Z,8.65
2023-02-12T00:23:23.987Z,12.55
2023-02-12T00:25:49.737Z,9.27
2023-02-12T00:28:15.657Z,13.88
2023-02-12T00:30:41.468Z,13.18
2023-02-12T00:33:07.228Z,13.25
2023-02-12T00:35:32.927Z,11.15
2023-02-12T00:37:58.740Z,11.80
2023-02-12T00:40:24.530Z,18.88
2023-02-12T00:42:50.255Z,12.77
2023-02-12T00:45:16.028Z,9.68
2023-02-12T00:47:41.747Z,10.88
2023-02-12T00:50:07.549Z,13.05
2023-02-12T00:52:33.277Z,12.65
2023-02-12T00:54:58.980Z,14.35
2023-02-12T00:57:24.861Z,15.38
2023-02-12T00:59:50.623Z,12.23
2023-02-12T01:02:17.459Z,14.25
2023-02-12T01:04:43.573Z,16.65
2023-02-12T01:07:09.551Z,16.33
2023-02-12T01:09:35.528Z,14.02
2023-02-12T01:12:01.630Z,14.48
2023-02-12T01:14:27.411Z,13.25
2023-02-12T01:16:53.128Z,19.65
2023-02-12T01:19:18.881Z,14.48
2023-02-12T01:21:44.688Z,13.38
2023-02-12T01:24:10.660Z,12.65
2023-02-12T01:26:36.366Z,12.70
2023-02-12T01:29:04.171Z,16.25
2023-02-12T01:31:32.154Z,11.52
2023-02-12T01:33:58.597Z,20.35
2023-02-12T01:36:24.673Z,10.50
2023-02-12T01:38:50.496Z,10.73
2023-02-12T01:41:18.313Z,11.32
2023-02-12T01:43:45.762Z,13.30
2023-02-12T01:46:12.580Z,14.40
2023-02-12T01:48:40.080Z,13.43
2023-02-12T01:51:06.759Z,13.48
2023-02-12T01:53:34.686Z,19.38
2023-02-12T01:56:01.396Z,16.40
2023-02-12T01:58:29.750Z,13.10
2023-02-12T02:00:55.500Z,17.30
2023-02-12T02:03:21.354Z,15.40
2023-02-12T02:05:51.650Z,12.25
2023-02-12T02:08:17.551Z,11.13
2023-02-12T02:10:43.292Z,22.33
2023-02-12T02:13:27.747Z,14.95
2023-02-12T02:15:56.568Z,14.48
2023-02-12T02:18:26.129Z,15.68
2023-02-12T02:21:16.119Z,12.88
2023-02-12T02:23:51.562Z,10.83
2023-02-12T02:26:17.301Z,15.00
2023-02-12T02:28:49.134Z,13.65
2023-02-12T02:31:23.318Z,19.52
2023-02-12T02:33:57.812Z,15.13
2023-02-12T02:36:28.764Z,15.52
2023-02-12T02:39:11.441Z,15.55
2023-02-12T02:41:40.260Z,18.95
2023-02-12T02:44:18.041Z,14.75
2023-02-12T02:46:48.073Z,15.02
2023-02-12T02:49:18.988Z,16.45
2023-02-12T02:54:21.446Z,16.58
2023-02-12T02:56:48.991Z,12.52
2023-02-12T02:59:21.047Z,18.38
2023-02-12T03:01:51.467Z,14.48
2023-02-12T03:04:40.320Z,17.10
2023-02-12T03:07:09.364Z,13.80
2023-02-12T03:09:37.815Z,14.40
2023-02-12T03:12:05.943Z,20.05
2023-02-12T03:14:33.065Z,15.18
2023-02-12T03:17:01.567Z,12.48
2023-02-12T03:19:33.199Z,23.27
2023-02-12T03:22:04.069Z,17.67
2023-02-12T03:24:35.369Z,20.65
2023-02-12T03:27:03.874Z,18.42
2023-02-12T03:29:29.903Z,19.08
2023-02-12T03:32:01.813Z,19.23
2023-02-12T03:34:32.035Z,19.38
2023-02-12T03:37:07.695Z,13.80
2023-02-12T03:39:36.416Z,14.27
2023-02-12T03:42:08.457Z,15.00
2023-02-12T03:44:34.130Z,22.48
2023-02-12T03:47:15.438Z,15.00
2023-02-12T03:50:01.434Z,17.83
2023-02-12T03:52:28.536Z,14.93
2023-02-12T03:54:54.341Z,20.85
2023-02-12T03:57:21.634Z,13.52
2023-02-12T03:59:47.629Z,16.88
2023-02-12T04:02:14.811Z,24.02
2023-02-12T04:04:40.742Z,24.58
2023-02-12T04:07:06.752Z,11.73
2023-02-12T04:09:32.583Z,17.05
2023-02-12T04:12:01.420Z,15.05
2023-02-12T04:14:33.094Z,27.92
2023-02-12T04:17:17.592Z,21.73
2023-02-12T04:19:43.491Z,15.20
2023-02-12T04:22:13.908Z,14.75
2023-02-12T04:24:55.150Z,15.20
2023-02-12T04:27:40.252Z,14.75
2023-02-12T04:30:18.329Z,14.18
2023-02-12T04:32:49.841Z,14.60
2023-02-12T04:35:35.919Z,22.15
2023-02-12T04:38:14.426Z,21.60
2023-02-12T04:40:40.707Z,10.77
2023-02-12T04:43:06.781Z,20.30
2023-02-12T04:45:33.347Z,17.92
2023-02-12T04:47:59.646Z,21.23
2023-02-12T04:50:26.053Z,16.30
2023-02-12T04:52:51.855Z,16.73
2023-02-12T04:55:17.686Z,16.17
2023-02-12T04:57:43.469Z,18.33
2023-02-12T05:00:11.474Z,15.13
2023-02-12T05:02:37.202Z,15.23
2023-02-12T05:05:03.146Z,21.98
2023-02-12T05:07:28.966Z,20.20
2023-02-12T05:09:54.775Z,16.58
2023-02-12T05:12:20.752Z,15.25
2023-02-12T05:14:46.447Z,15.25
2023-02-12T05:17:12.185Z,15.10
2023-02-12T05:19:37.919Z,18.42
2023-02-12T05:22:03.669Z,16.95
2023-02-12T05:24:29.528Z,15.63
2023-02-12T05:26:55.311Z,20.25
2023-02-12T05:29:20.996Z,14.52
2023-02-12T05:31:46.859Z,11.48
2023-02-12T05:34:12.993Z,19.50
2023-02-12T05:36:39.204Z,17.35
2023-02-12T05:39:06.603Z,15.65
2023-02-12T05:41:34.759Z,13.40
2023-02-12T05:44:01.149Z,17.48
2023-02-12T05:46:26.905Z,15.25
2023-02-12T05:48:52.883Z,15.18
2023-02-12T05:51:21.058Z,15.35
2023-02-12T05:53:47.561Z,15.73
2023-02-12T05:56:13.456Z,16.67
2023-02-12T05:58:39.769Z,15.07
2023-02-12T06:01:11.312Z,18.38
2023-02-12T06:03:37.135Z,14.02
2023-02-12T06:06:03.035Z,18.50
2023-02-12T06:08:28.740Z,11.90
2023-02-12T06:10:54.474Z,11.30
2023-02-12T06:13:20.196Z,15.98
2023-02-12T06:15:45.980Z,14.82
2023-02-12T06:18:11.727Z,17.30
2023-02-12T06:20:40.377Z,16.45
2023-02-12T06:23:06.107Z,13.65
2023-02-12T06:25:31.841Z,15.73
2023-02-12T06:27:57.616Z,16.60
2023-02-12T06:30:23.377Z,13.35
2023-02-12T06:32:49.575Z,17.77
2023-02-12T06:35:15.475Z,14.80
2023-02-12T06:37:41.210Z,15.63
2023-02-12T06:40:07.200Z,15.90
2023-02-12T06:42:33.227Z,17.90
2023-02-12T06:44:58.998Z,25.75
2023-02-12T06:47:24.708Z,17.85
2023-02-12T06:49:50.429Z,17.50
2023-02-12T06:52:16.130Z,17.98
2023-02-12T06:54:41.925Z,14.38
2023-02-12T06:57:07.706Z,12.25
2023-02-12T06:59:33.422Z,13.82
2023-02-12T07:01:59.138Z,17.05
2023-02-12T07:04:24.892Z,16.40
2023-02-12T07:06:51.449Z,15.60
2023-02-12T07:09:17.170Z,13.68
2023-02-12T07:11:42.880Z,14.07
2023-02-12T07:14:12.793Z,19.30
2023-02-12T07:16:38.541Z,17.13
2023-02-12T07:19:04.244Z,15.40
2023-02-12T07:21:31.316Z,21.42
2023-02-12T07:23:57.062Z,11.95
2023-02-12T07:26:22.906Z,18.08
2023-02-12T07:28:49.597Z,15.38
2023-02-12T07:31:16.971Z,16.17
2023-02-12T07:33:43.235Z,17.45
2023-02-12T07:36:15.356Z,16.73
2023-02-12T07:38:41.278Z,19.05
2023-02-12T07:41:11.768Z,18.27
2023-02-12T07:43:38.679Z,15.82
2023-02-12T07:46:08.323Z,14.10
2023-02-12T07:48:34.168Z,14.63
2023-02-12T07:51:04.166Z,17.10
2023-02-12T07:53:29.881Z,16.95
2023-02-12T07:55:55.828Z,21.10
2023-02-12T07:58:21.784Z,13.00
2023-02-12T08:00:47.519Z,14.13
2023-02-12T08:03:13.230Z,15.85
2023-02-12T08:05:39.059Z,15.85
2023-02-12T08:08:04.793Z,12.40
2023-02-12T08:10:32.415Z,15.57
2023-02-12T08:12:58.313Z,18.60
2023-02-12T08:15:24.075Z,15.05
2023-02-12T08:17:49.844Z,18.23
2023-02-12T08:20:15.621Z,17.65
2023-02-12T08:22:41.364Z,15.90
2023-02-12T08:25:07.835Z,20.90
2023-02-12T08:27:33.915Z,23.20
2023-02-12T08:29:59.688Z,14.77
2023-02-12T08:32:25.426Z,15.90
2023-02-12T08:34:51.167Z,16.00
2023-02-12T08:37:16.880Z,25.52
2023-02-12T08:39:42.682Z,14.07
2023-02-12T08:42:09.761Z,14.52
2023-02-12T08:44:36.446Z,16.35
2023-02-12T08:47:02.407Z,17.80
2023-02-12T08:49:29.194Z,17.02
2023-02-12T08:51:55.746Z,18.63
2023-02-12T08:54:23.541Z,19.25
2023-02-12T08:56:49.490Z,15.45
2023-02-12T08:59:15.852Z,16.73
2023-02-12T09:01:42.147Z,23.15
2023-02-12T09:04:17.297Z,19.63
2023-02-12T09:06:43.229Z,19.33
2023-02-12T09:09:09.006Z,18.45
2023-02-12T09:11:35.017Z,21.70
2023-02-12T09:14:01.644Z,16.17
2023-02-12T09:16:28.029Z,21.77
2023-02-12T09:18:54.375Z,18.13
2023-02-12T09:21:20.223Z,12.80
2023-02-12T09:23:46.149Z,15.63
2023-02-12T09:26:13.138Z,15.25
2023-02-12T09:28:39.573Z,22.17
2023-02-12T09:31:09.308Z,14.98
2023-02-12T09:33:35.231Z,25.00
2023-02-12T09:36:05.651Z,14.88
2023-02-12T09:38:31.488Z,19.60
2023-02-12T09:41:26.317Z,20.08
2023-02-12T09:43:57.676Z,18.10
2023-02-12T09:46:31.264Z,18.70
2023-02-12T09:49:06.894Z,15.65
2023-02-12T09:51:32.754Z,23.80
2023-02-12T09:54:04.442Z,23.00
2023-02-12T09:56:30.279Z,21.67
2023-02-12T09:58:58.211Z,18.83
2023-02-12T10:01:27.153Z,25.55
2023-02-12T10:03:53.665Z,22.70
2023-02-12T10:06:27.380Z,17.23
2023-02-12T10:09:09.991Z,26.48
2023-02-12T10:11:39.384Z,20.40
2023-02-12T10:14:11.016Z,19.15
2023-02-12T10:16:39.573Z,18.00
2023-02-12T10:19:14.353Z,14.68
2023-02-12T10:21:51.713Z,14.75
2023-02-12T10:24:23.519Z,18.25
2023-02-12T10:26:52.088Z,14.65
2023-02-12T10:29:25.245Z,12.98
2023-02-12T10:32:01.009Z,19.90
2023-02-12T10:34:31.684Z,14.88
2023-02-12T10:37:17.834Z,15.07
2023-02-12T10:39:49.368Z,9.55
2023-02-12T10:42:25.508Z,8.40
2023-02-12T10:44:51.230Z,9.57
2023-02-12T10:47:21.162Z,11.02
2023-02-12T10:49:51.531Z,12.35
2023-02-12T10:52:29.348Z,10.35
2023-02-12T10:54:55.173Z,12.90
2023-02-12T10:57:25.358Z,17.67
2023-02-12T10:59:52.740Z,11.93
2023-02-12T11:02:29.027Z,12.70
2023-02-12T11:05:20.946Z,12.05
2023-02-12T11:07:48.242Z,17.52
2023-02-12T11:10:19.651Z,12.43
2023-02-12T11:12:48.513Z,14.85
2023-02-12T11:15:19.503Z,14.45
2023-02-12T11:17:54.287Z,17.98
2023-02-12T11:20:22.425Z,15.93
2023-02-12T11:23:01.992Z,11.68
2023-02-12T11:25:29.148Z,13.77
2023-02-12T11:28:05.830Z,15.23
2023-02-12T11:30:32.399Z,10.13
2023-02-12T11:33:14.056Z,11.43
2023-02-12T11:35:56.704Z,13.25
2023-02-12T11:38:24.765Z,8.73
2023-02-12T11:40:52.692Z,11.80
2023-02-12T11:43:18.823Z,12.75
2023-02-12T11:45:47.353Z,9.43
2023-02-12T11:48:18.667Z,10.20
2023-02-12T11:50:48.422Z,10.55
2023-02-12T11:53:20.425Z,9.82
2023-02-12T11:55:53.882Z,10.63
2023-02-12T11:58:22.216Z,9.35
2023-02-12T12:00:58.303Z,11.93
2023-02-12T12:03:26.461Z,9.45
2023-02-12T12:06:01.156Z,9.75
2023-02-12T12:08:36.227Z,13.38
2023-02-12T12:11:13.591Z,12.63
2023-02-12T12:14:02.226Z,12.07
2023-02-12T12:16:46.446Z,10.00
2023-02-12T12:19:36.368Z,10.55
2023-02-12T12:22:03.822Z,14.00
2023-02-12T12:24:47.750Z,10.73
2023-02-12T12:27:43.063Z,13.27
2023-02-12T12:30:21.597Z,11.27
2023-02-12T12:32:48.806Z,10.38
2023-02-12T12:35:19.806Z,8.82
2023-02-12T12:38:00.634Z,8.57
2023-02-12T12:42:55.517Z,8.25
2023-02-12T12:45:27.557Z,9.82
2023-02-12T12:48:11.600Z,7.43
2023-02-12T12:50:58.078Z,12.10
2023-02-12T12:53:35.652Z,10.60
2023-02-12T12:56:07.524Z,8.93
2023-02-12T12:58:46.219Z,8.13
2023-02-12T13:01:31.258Z,7.93
2023-02-12T13:04:31.591Z,9.75
2023-02-12T13:07:12.704Z,8.05
2023-02-12T13:10:01.684Z,9.15
2023-02-12T13:12:27.667Z,7.47
2023-02-12T13:15:14.447Z,5.80
2023-02-12T13:18:00.576Z,7.72
2023-02-12T13:20:31.770Z,9.38
2023-02-12T13:23:20.625Z,8.00
2023-02-12T13:26:29.931Z,9.82
2023-02-12T13:29:12.610Z,6.70
2023-02-12T13:31:44.783Z,6.22
2023-02-12T13:34:13.689Z,6.25
2023-02-12T13:36:41.040Z,8.95
2023-02-12T13:39:17.714Z,6.00
2023-02-12T13:41:47.327Z,8.35
2023-02-12T13:44:16.080Z,8.65
2023-02-12T13:46:56.600Z,11.30
2023-02-12T13:49:39.884Z,9.45
2023-02-12T13:52:10.081Z,6.63
2023-02-12T13:54:35.889Z,7.60
2023-02-12T13:57:02.415Z,6.70
2023-02-12T13:59:33.889Z,6.20
2023-02-12T14:02:01.743Z,7.90
2023-02-12T14:04:32.043Z,11.23
2023-02-12T14:07:01.098Z,7.25
2023-02-12T14:09:33.472Z,7.47
2023-02-12T14:12:01.180Z,8.68
2023-02-12T14:14:28.624Z,7.53
2023-02-12T14:16:54.480Z,9.32
2023-02-12T14:19:36.738Z,9.27
2023-02-12T14:22:09.750Z,6.30
2023-02-12T14:24:35.646Z,7.40
2023-02-12T14:27:27.873Z,11.57
2023-02-12T14:30:01.124Z,8.18
2023-02-12T14:32:45.779Z,7.95
2023-02-12T14:35:29.273Z,6.05
2023-02-12T14:38:01.932Z,12.02
2023-02-12T14:40:31.197Z,9.70
2023-02-12T14:42:57.335Z,6.47
2023-02-12T14:45:27.561Z,5.53
2023-02-12T14:47:53.460Z,6.95
2023-02-12T14:50:22.800Z,6.72
2023-02-12T14:52:52.606Z,5.38
2023-02-12T14:55:20.997Z,5.65
2023-02-12T14:57:47.124Z,4.47
2023-02-12T15:00:31.784Z,5.25
2023-02-12T15:03:04.716Z,10.45
2023-02-12T15:05:32.837Z,9.38
2023-02-12T15:08:04.353Z,6.00
2023-02-12T15:10:33.867Z,7.78
2023-02-12T15:13:18.564Z,11.13
2023-02-12T15:15:52.769Z,8.05
2023-02-12T15:18:26.902Z,11.27
2023-02-12T15:20:59.839Z,5.10
2023-02-12T15:23:52.094Z,5.10
2023-02-12T15:26:22.716Z,5.03
2023-02-12T15:28:50.167Z,5.68
2023-02-12T15:31:22.013Z,11.57
2023-02-12T15:33:51.768Z,3.50
2023-02-12T15:36:28.831Z,6.40
2023-02-12T15:38:59.653Z,4.25
2023-02-12T15:43:51.371Z,4.35
2023-02-12T15:46:17.614Z,8.10
2023-02-12T15:48:43.997Z,3.85
2023-02-12T15:51:19.506Z,5.20
2023-02-12T15:53:45.451Z,4.72
2023-02-12T15:56:13.051Z,4.20
2023-02-12T15:58:46.433Z,4.90
2023-02-12T16:01:14.166Z,8.45
2023-02-12T16:03:40.283Z,7.63
2023-02-12T16:06:12.202Z,5.50
2023-02-12T16:08:38.660Z,7.50
2023-02-12T16:11:13.358Z,6.97
2023-02-12T16:13:50.099Z,5.45
2023-02-12T16:16:21.617Z,7.35
2023-02-12T16:19:02.427Z,7.55
2023-02-12T16:21:28.380Z,9.00
2023-02-12T16:23:54.306Z,6.50
2023-02-12T16:26:21.814Z,6.57
2023-02-12T16:28:49.285Z,5.70
2023-02-12T16:31:16.671Z,8.05
2023-02-12T16:33:44.789Z,7.05
2023-02-12T16:36:16.251Z,8.10
2023-02-12T16:38:49.305Z,8.45
2023-02-12T16:41:19.477Z,10.07
2023-02-12T16:44:00.343Z,9.77
2023-02-12T16:48:52.880Z,8.70
2023-02-12T16:51:26.788Z,10.63
2023-02-12T16:53:54.026Z,11.77
2023-02-12T16:56:20.818Z,8.98
2023-02-12T16:58:48.634Z,10.68
2023-02-12T17:01:15.568Z,9.20
2023-02-12T17:03:42.466Z,11.85
2023-02-12T17:06:09.419Z,25.48
2023-02-12T17:08:35.285Z,24.63
2023-02-12T17:11:01.208Z,21.00
2023-02-12T17:13:27.139Z,26.90
2023-02-12T17:15:54.901Z,31.30
2023-02-12T17:18:21.747Z,28.25
2023-02-12T17:20:52.445Z,19.00
2023-02-12T17:23:18.379Z,17.40
2023-02-12T17:25:44.167Z,39.03
2023-02-12T17:28:10.181Z,51.10
2023-02-12T17:30:36.926Z,61.90
2023-02-12T17:33:03.305Z,53.88
2023-02-12T17:35:32.245Z,51.10
2023-02-12T17:37:58.031Z,38.22
2023-02-12T17:40:23.974Z,37.63
2023-02-12T17:42:49.719Z,43.97
2023-02-12T17:45:16.476Z,48.95
2023-02-12T17:47:42.652Z,42.42
2023-02-12T17:50:13.041Z,30.05
2023-02-12T17:52:38.884Z,22.23
2023-02-12T17:55:05.161Z,19.38
2023-02-12T17:57:31.381Z,12.27
2023-02-12T17:59:57.600Z,12.10
2023-02-12T18:02:23.798Z,12.07
2023-02-12T18:04:49.566Z,15.38
2023-02-12T18:07:15.361Z,7.63
2023-02-12T18:09:41.266Z,9.48
2023-02-12T18:12:07.307Z,9.88
2023-02-12T18:14:33.127Z,8.13
2023-02-12T18:16:59.121Z,9.73
2023-02-12T18:19:28.307Z,8.40
2023-02-12T18:21:54.239Z,8.70
2023-02-12T18:24:20.096Z,9.02
2023-02-12T18:26:46.199Z,7.15
2023-02-12T18:29:12.527Z,9.23
2023-02-12T18:31:38.640Z,10.00
2023-02-12T18:34:05.531Z,7.45
2023-02-12T18:36:31.510Z,11.10
2023-02-12T18:39:00.255Z,10.02
2023-02-12T18:41:27.630Z,10.80
2023-02-12T18:43:54.201Z,9.38
2023-02-12T18:46:30.247Z,8.68
2023-02-12T18:48:56.029Z,8.55
2023-02-12T18:51:23.346Z,9.02
2023-02-12T18:53:56.555Z,7.60
2023-02-12T18:56:22.370Z,7.03
2023-02-12T18:58:53.484Z,9.80
2023-02-12T19:01:19.812Z,5.97
2023-02-12T19:03:46.222Z,7.40
2023-02-12T19:06:18.041Z,7.30
2023-02-12T19:08:43.804Z,6.85
2023-02-12T19:11:10.281Z,7.32
2023-02-12T19:13:36.605Z,6.03
2023-02-12T19:16:12.926Z,6.10
2023-02-12T19:18:39.071Z,7.85
2023-02-12T19:21:08.841Z,8.15
2023-02-12T19:23:35.692Z,9.32
2023-02-12T19:26:02.881Z,7.47
2023-02-12T19:28:28.714Z,6.05
2023-02-12T19:30:55.180Z,7.18
2023-02-12T19:33:21.334Z,6.57
2023-02-12T19:35:53.174Z,6.28
2023-02-12T19:38:18.948Z,7.85
2023-02-12T19:40:44.711Z,5.78
2023-02-12T19:43:10.598Z,6.20
2023-02-12T19:45:36.419Z,7.80
2023-02-12T19:48:02.268Z,4.63
2023-02-12T19:50:28.241Z,6.50
2023-02-12T19:52:54.241Z,7.68
2023-02-12T19:55:20.051Z,4.80
2023-02-12T19:57:47.409Z,6.45
2023-02-12T20:00:13.604Z,6.10
2023-02-12T20:02:40.298Z,7.22
2023-02-12T20:05:07.689Z,4.60
2023-02-12T20:07:34.948Z,6.00
2023-02-12T20:10:00.799Z,5.97
2023-02-12T20:12:27.497Z,8.70
2023-02-12T20:14:53.921Z,4.75
2023-02-12T20:17:19.670Z,7.32
2023-02-12T20:19:45.684Z,7.78
2023-02-12T20:22:11.674Z,7.10
2023-02-12T20:24:37.605Z,8.30
2023-02-12T20:27:03.660Z,10.55
2023-02-12T20:29:29.460Z,8.10
2023-02-12T20:31:55.404Z,8.52
2023-02-12T20:34:26.408Z,9.48
2023-02-12T20:36:53.440Z,10.40
2023-02-12T20:39:19.810Z,9.75
2023-02-12T20:41:47.214Z,8.85
2023-02-12T20:44:15.285Z,10.30
2023-02-12T20:46:44.702Z,11.23
2023-02-12T20:49:12.298Z,9.48
2023-02-12T20:51:38.702Z,10.75
2023-02-12T20:54:04.580Z,9.60
2023-02-12T20:56:31.621Z,15.13
2023-02-12T20:58:58.396Z,14.45
2023-02-12T21:01:30.883Z,19.45
2023-02-12T21:03:57.116Z,16.25
2023-02-12T21:06:28.256Z,16.00
2023-02-12T21:08:53.986Z,13.40
2023-02-12T21:11:21.491Z,16.77
2023-02-12T21:13:58.746Z,17.67
2023-02-12T21:16:26.925Z,13.82
2023-02-12T21:18:53.195Z,17.83
2023-02-12T21:21:20.232Z,17.08
2023-02-12T21:23:46.349Z,15.45
2023-02-12T21:26:14.025Z,18.05
2023-02-12T21:28:40.164Z,22.23
2023-02-12T21:31:16.381Z,18.15
2023-02-12T21:33:43.428Z,17.50
2023-02-12T21:36:13.706Z,19.73
2023-02-12T21:38:40.428Z,21.38
2023-02-12T21:41:06.222Z,22.45
2023-02-12T21:43:31.953Z,20.95
2023-02-12T21:45:58.456Z,23.30
2023-02-12T21:48:24.259Z,26.48
2023-02-12T21:50:50.018Z,28.60
2023-02-12T21:53:16.430Z,27.00
2023-02-12T21:55:42.322Z,23.40
2023-02-12T21:58:08.136Z,31.38
2023-02-12T22:00:33.998Z,35.72
2023-02-12T22:02:59.860Z,33.17
2023-02-12T22:05:25.604Z,36.67
2023-02-12T22:07:51.391Z,32.85
2023-02-12T22:10:17.250Z,37.58
2023-02-12T22:12:43.049Z,35.67
2023-02-12T22:15:08.980Z,37.88
2023-02-12T22:17:34.754Z,35.50
2023-02-12T22:20:00.551Z,37.53
2023-02-12T22:22:26.340Z,48.42
2023-02-12T22:24:52.216Z,35.00
2023-02-12T22:27:18.084Z,33.67
2023-02-12T22:29:43.835Z,39.63
2023-02-12T22:32:09.829Z,36.40
2023-02-12T22:34:35.869Z,33.60
2023-02-12T22:37:01.597Z,42.30
2023-02-12T22:39:29.147Z,37.08
2023-02-12T22:41:55.262Z,43.55
2023-02-12T22:44:21.869Z,41.35
2023-02-12T22:46:48.043Z,36.28
2023-02-12T22:49:13.877Z,43.38
2023-02-12T22:51:40.896Z,44.80
2023-02-12T22:54:07.781Z,38.63
2023-02-12T22:56:33.659Z,36.60
2023-02-12T22:59:00.518Z,35.53
2023-02-12T23:01:27.117Z,39.08
2023-02-12T23:03:53.115Z,35.28
2023-02-12T23:06:23.462Z,38.00
2023-02-12T23:08:54.082Z,42.70
2023-02-12T23:11:20.143Z,36.08
2023-02-12T23:13:46.019Z,40.50
2023-02-12T23:16:11.871Z,42.08
2023-02-12T23:18:37.698Z,38.90
2023-02-12T23:21:03.523Z,33.72
2023-02-12T23:23:29.262Z,33.92
2023-02-12T23:25:55.404Z,31.40
2023-02-12T23:28:21.813Z,31.48
2023-02-12T23:30:48.307Z,34.85
2023-02-12T23:33:14.943Z,31.17
2023-02-12T23:35:40.711Z,33.00
2023-02-12T23:38:06.585Z,29.98
2023-02-12T23:40:32.827Z,28.77
2023-02-12T23:42:59.099Z,34.30
2023-02-12T23:45:25.327Z,34.80
2023-02-12T23:47:51.246Z,30.50
2023-02-12T23:50:17.349Z,28.48
2023-02-12T23:52:43.107Z,28.58
2023-02-12T23:55:08.926Z,26.90
2023-02-12T23:57:34.923Z,30.95
